1958 Tropical Low NOT_NAMED (1958011S11137)


IBTrACS version v04r00. Visit IBTrACS website for data access.
Please direct all questions to the IBTrACS Q and A forum

Storm track - Intensity - Wind Radii - Intensity Data - Source Data - All data

Summary Information

Storm ID 1958011S11137
Start Jan 11 05Z
Landfall Jan 13 03Z, Jan 15 09Z
Max Intensity 30 kt (Jan 15 05Z)
End Jan 16 17Z
ATCF IDs ,SH061958
Track status Best track data.
Spur track This storm is a spur track associated with the main storm: 1958015S15122

Storm track plot

Map of storm track

Intensity plots

Map of storm track

Radial wind information

No radial wind information for this storm


Position and Intensity Table

BASIN ISO_TIME_________ NATURE LAT LON WMO PRES USA WIND BOM PRES DS824 WIND DS824 PRES TD9636 WIND
degrees north degrees east mb kts mb kts mb kts
SP 1958-01-11 05:00:00 NR -11.00 137.00 1005 1005 20
SP 06:00:00 TS -11.07 137.01 20 20 1005 20
SP 09:00:00 TS -11.25 137.11 20 20
SP 12:00:00 TS -11.43 137.20 20 20
SP 15:00:00 TS -11.64 137.27 20 20
SP 17:00:00 TS -11.78 137.30 20 20
SP 18:00:00 TS -11.86 137.31 20 20
SP 21:00:00 TS -12.10 137.34 20 20
SP 1958-01-12 00:00:00 TS -12.39 137.36 20 20
SP 03:00:00 TS -12.72 137.39 20 20
SP 05:00:00 TS -12.99 137.40 1004 20 1004 20
SP 06:00:00 TS -13.17 137.41 20 1004 20 1004 19
SP 09:00:00 TS -13.81 137.38 17 1004 20 1004 16
SP 12:00:00 TS -14.43 137.31 15 1004 20 1004 14
SP 15:00:00 TS -14.87 137.16 12 1004 20 1004 11
SP 17:00:00 TS -14.97 136.99 1004 10 1004 20 1004 10
SP 18:00:00 TS -14.91 136.87 10 1004 20 1004 10
SP 21:00:00 TS -14.39 136.39 10 1004 20 1004 10
SP 23:00:00 TS -13.94 136.12 1005 10 1005 20 1004 10
SP 1958-01-13 00:00:00 TS -13.74 136.04 10 1004 20 1005 10
SP 03:00:00 TS -13.27 136.00 10 1004 20 1004 10
SP 05:00:00 TS -13.05 135.93 1004 10 1004 20 1004 10
SP 06:00:00 TS -12.97 135.79 10 1004 20 1004 10
SI 09:00:00 TS -12.85 134.97 10 1004 20 1004 10
SI 12:00:00 TS -12.86 133.94 10 1004 20 1004 10
SI 15:00:00 TS -12.93 133.05 10 1004 20 1004 10
SI 17:00:00 TS -13.02 132.59 1004 10 1004 20 1004 10
SI 18:00:00 TS -13.08 132.45 10 1004 20 1004 10
SI 21:00:00 TS -13.34 132.28 12 1004 20 1004 11
SI 1958-01-14 00:00:00 TS -13.63 132.30 15 1004 20 1004 12
SI 03:00:00 TS -13.86 132.36 15 1004 20 1004 14
SI 05:00:00 TS -13.98 132.40 1005 15 1005 20 1004 15
SI 06:00:00 TS -14.01 132.41 15 1005 20 1005 14
SI 09:00:00 TS -14.05 132.43 12 1005 20 1005 13
SI 12:00:00 TS -14.03 132.41 10 1005 20 1005 12
SI 15:00:00 TS -14.01 132.33 10 1005 20 1005 10
SI 17:00:00 TS -14.00 132.17 1005 10 1005 20 1005 10
SI 18:00:00 TS -13.99 132.04 10 1004 20 1005 11
SI 21:00:00 TS -13.92 131.47 15 1004 20 1004 16
SI 23:00:00 TS -13.90 130.95 18 1004 20 1004 20
SI 1958-01-15 00:00:00 TS -13.90 130.66 20 1004 20 1004 21
SI 03:00:00 TS -13.91 129.71 25 1004 20 1004 26
SI 05:00:00 TS -14.04 128.99 1004 28 1004 20 1004 30
SI 06:00:00 TS -14.18 128.60 30 1004 20 1004 28
SI 09:00:00 TS -14.95 127.31 25 1004 20 1004 25
SI 11:00:00 TS -15.55 126.41 21 1004 20 1004 22
SI 12:00:00 TS -15.84 125.97 20 1004 20 1004 21
SI 15:00:00 TS -16.61 124.76 17 1004 20 1004 17
SI 17:00:00 TS -16.92 124.06 1004 15 1004 20 1004 15
SI 18:00:00 TS -16.94 123.77 15 1004 20 1004 15
SI 21:00:00 TS -16.60 123.06 17 1004 20 1004 16
SI 23:00:00 TS -16.19 122.71 19 1004 20 1004 17
SI 1958-01-16 00:00:00 TS -15.97 122.56 20 1004 20 1004 17
SI 01:00:00 TS -15.77 122.42 20 1004 20 1004 18
SI 03:00:00 TS -15.37 122.19 20 1004 20 1004 19
SI 05:00:00 TS -15.07 122.00 1004 20 1004 20 1004 20
SI 06:00:00 TS -14.97 121.90 20 1004 20 1004 20
SI 09:00:00 TS -14.97 121.63 20 1004 20
SI 11:00:00 TS -15.12 121.45 20 1004 20
SI 12:00:00 TS -15.22 121.37 20 1004 20
SI 15:00:00 NR -15.65 121.16 1004 20
SI 17:00:00 NR -16.00 121.00 1004 1004 20

Source Information

Agency Information
USA bsh061958.txt
TOKYO
CMA
HKO
NEWDELHI
REUNION
BOM IDCKMSTM0S.csv:Line=2467:unnamed
NADI
WELLINGTON
DS824 aus_area.dat:255:NOT NAMED
TD9636 cons_worldwide_trop_cyclone_18710101-19891231-006:Line=5067
TD9635
NEUMANN
MLC

All available IBTrACS Data

SEASON BASIN SUBBASIN ISO_TIME_________ NATURE LAT LON WMO PRES WMO AGENCY DIST2LAND LANDFALL IFLAG USA AGENCY USA ATCF_ID USA LAT USA LON USA WIND USA SSHS BOM LAT BOM LON BOM PRES DS824 LAT DS824 LON DS824 STAGE DS824 WIND DS824 PRES TD9636 LAT TD9636 LON TD9636 STAGE TD9636 WIND STORM SPEED STORM DIR
Year degrees north degrees east mb km km degrees north degrees east kts 1 degrees north degrees east mb degrees north degrees east kts mb degrees north degrees east kts kts degrees
1958 SP EA 1958-01-11 05:00:00 NR -11.00 137.00 1005 bom 124 114 ______O___O___ -1 -11.00 137.00 1005 -11.00 137.00 1 20 4 0
1958 SP EA 06:00:00 TS -11.07 137.01 114 104 O_____P__OP___ jtwc_sh SH061958 -11.10 137.00 20 -1 -11.01 137.00 -11.10 137.00 TC 20 1005 -11.09 137.04 1 20 4 157
1958 SP EA 09:00:00 TS -11.25 137.11 110 101 P_____P__PP___ SH061958 -11.35 137.17 20 -1 -11.04 137.01 -11.19 137.07 TC -11.35 137.16 1 20 4 153
1958 SP EA 12:00:00 TS -11.43 137.20 101 81 O_____P__PP___ jtwc_sh SH061958 -11.60 137.30 20 -1 -11.10 137.03 -11.30 137.13 TC -11.61 137.26 1 20 4 158
1958 SP EA 15:00:00 TS -11.64 137.27 84 64 P_____P__PP___ SH061958 -11.85 137.37 20 -1 -11.20 137.05 -11.45 137.19 TC -11.85 137.35 1 20 4 165
1958 SP EA 17:00:00 TS -11.78 137.30 64 64 P_____P__PO___ SH061958 -12.02 137.39 20 -1 -11.31 137.08 -11.57 137.23 TC -12.00 137.40 1 20 4 172
1958 SP EA 18:00:00 TS -11.86 137.31 55 39 O_____P__PP___ jtwc_sh SH061958 -12.10 137.40 20 -1 -11.38 137.09 -11.64 137.25 TC -12.07 137.42 1 20 5 174
1958 SP EA 21:00:00 TS -12.10 137.34 39 34 P_____P__PP___ SH061958 -12.35 137.41 20 -1 -11.66 137.14 -11.89 137.30 TC -12.28 137.45 1 20 5 174
1958 SP EA 1958-01-12 00:00:00 TS -12.39 137.36 44 44 O_____P__PP___ jtwc_sh SH061958 -12.60 137.40 20 -1 -12.04 137.22 -12.22 137.34 TC -12.50 137.46 1 20 6 176
1958 SP EA 03:00:00 TS -12.72 137.39 62 62 P_____P__PP___ SH061958 -12.80 137.41 20 -1 -12.57 137.32 -12.66 137.38 TC -12.78 137.43 1 20 7 176
1958 SP EA 05:00:00 TS -12.99 137.40 1004 bom 75 75 P_____O__PO___ SH061958 -12.98 137.41 20 -1 -13.00 137.40 1004 -13.01 137.39 TC -13.00 137.40 1 20 9 177
1958 SP EA 06:00:00 TS -13.17 137.41 79 54 O_____P__OP___ jtwc_sh SH061958 -13.10 137.40 20 -1 -13.24 137.45 1004 -13.20 137.40 TC 20 1004 -13.18 137.39 1 19 12 181
1958 SP EA 09:00:00 TS -13.81 137.38 54 32 P_____P__PP___ SH061958 -13.69 137.32 17 -1 -14.01 137.56 1004 -13.84 137.40 TC 20 1004 -13.80 137.33 1 16 13 184
1958 SP EA 12:00:00 TS -14.43 137.31 34 34 O_____P__PP___ jtwc_sh SH061958 -14.30 137.20 15 -1 -14.68 137.56 1004 -14.44 137.32 TC 20 1004 -14.42 137.24 1 14 11 191
1958 SP EA 15:00:00 TS -14.87 137.16 70 68 P_____P__PP___ SH061958 -14.82 137.12 12 -1 -15.04 137.33 1004 -14.82 137.11 TC 20 1004 -14.87 137.11 1 11 8 209
1958 SP EA 17:00:00 TS -14.97 136.99 1004 bom 78 67 P_____O__PO___ SH061958 -15.00 137.05 10 -1 -15.00 137.00 1004 -14.86 136.86 TC 20 1004 -15.00 137.00 1 10 6 262
1958 SP EA 18:00:00 TS -14.91 136.87 67 22 O_____P__OP___ jtwc_sh SH061958 -15.00 137.00 10 -1 -14.83 136.68 1004 -14.80 136.70 TC 20 1004 -14.94 136.97 1 10 12 315
1958 SP EA 21:00:00 TS -14.39 136.39 22 0 P_____P__PP___ SH061958 -14.57 136.79 10 -1 -14.09 135.64 1004 -14.19 135.90 TC 20 1004 -14.54 136.85 1 10 15 323
1958 SP EA 23:00:00 TS -13.94 136.12 1005 bom 15 0 P_____O__PP___ SH061958 -14.12 136.60 10 -1 -13.60 135.20 1005 -13.71 135.44 TC 20 1004 -14.15 136.73 1 10 15 332
1958 SP EA 1958-01-13 00:00:00 TS -13.74 136.04 10 0 O_____P__OP___ jtwc_sh SH061958 -13.90 136.50 10 -1 -13.44 135.22 1004 -13.50 135.30 TC 20 1005 -13.94 136.65 1 10 10 351
1958 SP EA 03:00:00 TS -13.27 136.00 0 0 P_____P__PP___ SH061958 -13.37 136.27 10 -1 -13.12 135.71 1004 -13.16 135.45 TC 20 1004 -13.32 136.32 1 10 8 351
1958 SP EA 05:00:00 TS -13.05 135.93 1004 bom 0 0 P_____O__PO___ SH061958 -13.10 136.00 10 -1 -13.00 136.00 1004 -13.04 135.65 TC 20 1004 -13.00 136.00 1 10 7 325
1958 SP EA 06:00:00 TS -12.97 135.79 0 0 O_____P__OP___ jtwc_sh SH061958 -13.00 135.80 10 -1 -12.94 135.91 1004 -13.00 135.70 TC 20 1004 -12.92 135.75 1 10 14 282
1958 SI WA 09:00:00 TS -12.85 134.97 0 0 P_____P__PP___ SH061958 -12.87 134.79 10 -1 -12.83 135.22 1004 -12.89 135.19 TC 20 1004 -12.79 134.85 1 10 18 274
1958 SI WA 12:00:00 TS -12.86 133.94 0 0 O_____P__PP___ jtwc_sh SH061958 -12.90 133.70 10 -1 -12.82 134.17 1004 -12.89 134.30 TC 20 1004 -12.79 133.85 1 10 19 268
1958 SI WA 15:00:00 TS -12.93 133.05 0 0 P_____P__PP___ SH061958 -12.95 132.95 10 -1 -12.91 133.08 1004 -12.96 133.31 TC 20 1004 -12.89 132.96 1 10 16 263
1958 SI WA 17:00:00 TS -13.02 132.59 1004 bom 0 0 P_____O__PO___ SH061958 -13.04 132.61 10 -1 -13.00 132.50 1004 -13.05 132.73 TC 20 1004 -13.00 132.50 1 10 12 255
1958 SI WA 18:00:00 TS -13.08 132.45 0 0 O_____P__OP___ jtwc_sh SH061958 -13.10 132.50 10 -1 -13.06 132.38 1004 -13.10 132.50 TC 20 1004 -13.06 132.38 1 10 7 224
1958 SI WA 21:00:00 TS -13.34 132.28 0 0 P_____P__PP___ SH061958 -13.39 132.36 12 -1 -13.31 132.20 1004 -13.30 132.27 TC 20 1004 -13.31 132.20 1 11 6 195
1958 SI WA 1958-01-14 00:00:00 TS -13.63 132.30 0 0 O_____P__PP___ jtwc_sh SH061958 -13.70 132.40 15 -1 -13.60 132.22 1004 -13.56 132.25 TC 20 1004 -13.60 132.22 1 12 5 171
1958 SI WA 03:00:00 TS -13.86 132.36 0 0 P_____P__PP___ SH061958 -13.89 132.40 15 -1 -13.86 132.33 1004 -13.81 132.33 TC 20 1004 -13.86 132.33 1 14 4 165
1958 SI WA 05:00:00 TS -13.98 132.40 1005 bom 0 0 P_____O__PO___ SH061958 -13.97 132.40 15 -1 -14.00 132.40 1005 -13.95 132.38 TC 20 1004 -14.00 132.40 1 15 3 160
1958 SI WA 06:00:00 TS -14.01 132.41 0 0 O_____P__OP___ jtwc_sh SH061958 -14.00 132.40 15 -1 -14.03 132.42 1005 -14.00 132.40 TC 20 1005 -14.03 132.42 1 14 1 154
1958 SI WA 09:00:00 TS -14.05 132.43 0 0 P_____P__PP___ SH061958 -14.02 132.37 12 -1 -14.08 132.50 1005 -14.05 132.42 TC 20 1005 -14.08 132.50 1 13 0 0
1958 SI WA 12:00:00 TS -14.03 132.41 0 0 O_____P__PP___ jtwc_sh SH061958 -14.00 132.30 10 -1 -14.06 132.53 1005 -14.04 132.39 TC 20 1005 -14.06 132.53 1 12 1 291
1958 SI WA 15:00:00 TS -14.01 132.33 0 0 P_____P__PP___ SH061958 -14.00 132.30 10 -1 -14.02 132.41 1005 -14.01 132.24 TC 20 1005 -14.02 132.41 1 10 3 278
1958 SI WA 17:00:00 TS -14.00 132.17 1005 bom 0 0 P_____O__PO___ SH061958 -14.00 132.20 10 -1 -14.00 132.20 1005 -14.00 132.04 TC 20 1005 -14.00 132.20 1 10 6 276
1958 SI WA 18:00:00 TS -13.99 132.04 0 0 O_____P__OP___ jtwc_sh SH061958 -14.00 132.10 10 -1 -13.96 132.05 1004 -14.00 131.90 TC 20 1005 -13.96 132.05 1 11 10 276
1958 SI WA 21:00:00 TS -13.92 131.47 0 0 P_____P__PP___ SH061958 -13.99 131.54 15 -1 -13.84 131.46 1004 -13.96 131.33 TC 20 1004 -13.84 131.46 1 16 13 275
1958 SI WA 23:00:00 TS -13.90 130.95 0 0 P_____P__PP___ SH061958 -13.99 131.00 18 -1 -13.77 130.95 1004 -13.95 130.84 TC 20 1004 -13.77 130.95 1 20 16 272
1958 SI WA 1958-01-15 00:00:00 TS -13.90 130.66 0 0 O_____P__PP___ jtwc_sh SH061958 -14.00 130.70 20 -1 -13.76 130.67 1004 -13.96 130.57 TC 20 1004 -13.76 130.67 1 21 18 269
1958 SI WA 03:00:00 TS -13.91 129.71 0 0 P_____P__PP___ SH061958 -13.92 129.75 25 -1 -13.83 129.71 1004 -14.05 129.64 TC 20 1004 -13.83 129.71 1 26 20 265
1958 SI WA 05:00:00 TS -14.04 128.99 1004 bom 54 54 P_____O__PO___ SH061958 -13.99 129.00 28 -1 -14.00 129.00 1004 -14.20 128.96 TC 20 1004 -14.00 129.00 1 30 22 256
1958 SI WA 06:00:00 TS -14.18 128.60 70 0 O_____P__OP___ jtwc_sh SH061958 -14.10 128.60 30 -1 -14.21 128.61 1004 -14.30 128.60 TC 20 1004 -14.21 128.61 1 28 28 241
1958 SI WA 09:00:00 TS -14.95 127.31 0 0 P_____P__PP___ SH061958 -14.87 127.25 25 -1 -15.04 127.33 1004 -14.94 127.40 TC 20 1004 -15.04 127.33 1 25 30 237
1958 SI WA 11:00:00 TS -15.55 126.41 0 0 P_____P__PP___ SH061958 -15.50 126.33 21 -1 -15.66 126.43 1004 -15.45 126.54 TC 20 1004 -15.66 126.43 1 22 31 235
1958 SI WA 12:00:00 TS -15.84 125.97 0 0 O_____P__PP___ jtwc_sh SH061958 -15.80 125.90 20 -1 -15.96 125.98 1004 -15.71 126.11 TC 20 1004 -15.96 125.98 1 21 29 237
1958 SI WA 15:00:00 TS -16.61 124.76 0 0 P_____P__PP___ SH061958 -16.62 124.74 17 -1 -16.71 124.72 1004 -16.39 124.86 TC 20 1004 -16.71 124.72 1 17 26 240
1958 SI WA 17:00:00 TS -16.92 124.06 1004 bom 0 0 P_____O__PO___ SH061958 -16.95 124.08 15 -1 -17.00 124.00 1004 -16.71 124.12 TC 20 1004 -17.00 124.00 1 15 20 250
1958 SI WA 18:00:00 TS -16.94 123.77 0 0 O_____P__OP___ jtwc_sh SH061958 -17.00 123.80 15 -1 -16.96 123.72 1004 -16.80 123.80 TC 20 1004 -16.96 123.72 1 15 15 288
1958 SI WA 21:00:00 TS -16.60 123.06 10 0 P_____P__PP___ SH061958 -16.55 123.09 17 -1 -16.56 123.03 1004 -16.79 123.03 TC 20 1004 -16.56 123.03 1 16 15 307
1958 SI WA 23:00:00 TS -16.19 122.71 39 39 P_____P__PP___ SH061958 -16.04 122.75 19 -1 -16.15 122.69 1004 -16.57 122.66 TC 20 1004 -16.15 122.69 1 17 16 323
1958 SI WA 1958-01-16 00:00:00 TS -15.97 122.56 64 64 O_____P__PP___ jtwc_sh SH061958 -15.80 122.60 20 -1 -15.92 122.55 1004 -16.42 122.51 TC 20 1004 -15.92 122.55 1 17 15 327
1958 SI WA 01:00:00 TS -15.77 122.42 94 94 P_____P__PP___ SH061958 -15.61 122.45 20 -1 -15.70 122.42 1004 -16.24 122.38 TC 20 1004 -15.70 122.42 1 18 14 329
1958 SI WA 03:00:00 TS -15.37 122.19 144 144 P_____P__PP___ SH061958 -15.29 122.21 20 -1 -15.29 122.19 1004 -15.82 122.16 TC 20 1004 -15.29 122.19 1 19 12 330
1958 SI WA 05:00:00 TS -15.07 122.00 1004 bom 183 183 P_____O__PO___ SH061958 -15.06 122.00 20 -1 -15.00 122.00 1004 -15.35 121.98 TC 20 1004 -15.00 122.00 1 20 10 325
1958 SI WA 06:00:00 TS -14.97 121.90 199 199 O_____P__OP___ jtwc_sh SH061958 -15.00 121.90 20 -1 -14.92 121.91 1004 -15.10 121.90 TC 20 1004 -14.92 121.91 1 20 6 285
1958 SI WA 09:00:00 TS -14.97 121.63 218 216 P_____P___P___ SH061958 -15.05 121.60 20 -1 -14.92 121.65 1004 TC -14.92 121.65 1 20 6 251
1958 SI WA 11:00:00 TS -15.12 121.45 216 216 P_____P___P___ SH061958 -15.21 121.40 20 -1 -15.08 121.48 1004 TC -15.08 121.48 1 20 7 224
1958 SI WA 12:00:00 TS -15.22 121.37 216 201 O_____P___P___ jtwc_sh SH061958 -15.30 121.30 20 -1 -15.19 121.40 1004 TC -15.19 121.40 1 20 9 208
1958 SI WA 15:00:00 NR -15.65 121.16 193 185 ______P___P___ SH061958 -1 -15.65 121.16 1004 TC -15.65 121.16 1 20 10 205
1958 SI WA 17:00:00 NR -16.00 121.00 1004 bom 185 ______O___O___ SH061958 -1 -16.00 121.00 1004 TC -16.00 121.00 1 20 12 204